Time;durP1;ratioP1;P1;durP2;ratioP2;P2;SDS_P1;SDS_P2;PMS_P1;PMS_P2;Temp;Humidity;BMP_temperature;BMP_pressure;BME280_temperature;BME280_humidity;BME280_pressure;Samples;Min_cycle;Max_cycle;Signal;HPM_P1;HPM_P2
2024/02/20 00:01:50;;;;;;;0.20;0.20;;;;;;;8.79;72.49;102924.66;5093251;28;20560;-78
2024/02/20 00:04:19;;;;;;;1.85;1.75;;;;;;;8.75;72.31;102926.34;5085829;28;20032;-79
2024/02/20 00:06:45;;;;;;;0.13;0.13;;;;;;;8.74;72.79;102928.06;5084248;28;20024;-78
2024/02/20 00:09:11;;;;;;;0.20;0.20;;;;;;;8.78;72.94;102928.16;5075325;28;20035;-79
2024/02/20 00:11:38;;;;;;;0.20;0.20;;;;;;;8.77;72.92;102931.66;5074526;28;20025;-79
2024/02/20 00:14:04;;;;;;;0.10;0.10;;;;;;;8.77;73.16;102936.94;5083999;28;20480;-78
2024/02/20 00:16:30;;;;;;;0.20;0.20;;;;;;;8.80;72.75;102932.63;5074605;28;20042;-79
2024/02/20 00:18:57;;;;;;;2.88;2.63;;;;;;;8.82;72.78;102928.28;5078046;28;20082;-78
2024/02/20 00:21:24;;;;;;;0.15;0.15;;;;;;;8.81;73.80;102928.22;5078132;28;20055;-78
2024/02/20 00:23:51;;;;;;;0.20;0.20;;;;;;;8.87;73.54;102923.06;5088101;28;20032;-78
2024/02/20 00:26:18;;;;;;;0.20;0.20;;;;;;;8.91;73.49;102927.56;5084278;28;20028;-78
2024/02/20 00:28:45;;;;;;;0.10;0.10;;;;;;;8.94;73.41;102927.59;5089849;28;20024;-78
2024/02/20 00:31:11;;;;;;;0.15;0.15;;;;;;;8.96;73.41;102938.22;5089538;28;20032;-78
2024/02/20 00:33:37;;;;;;;0.20;0.20;;;;;;;9.00;73.04;102933.03;5082671;28;20082;-78
2024/02/20 00:36:05;;;;;;;2.58;2.38;;;;;;;8.98;73.76;102940.03;5081706;28;20129;-78
2024/02/20 00:38:31;;;;;;;0.73;0.73;;;;;;;8.97;73.56;102938.25;5085696;28;20387;-78
2024/02/20 00:40:58;;;;;;;0.10;0.10;;;;;;;9.02;73.43;102944.53;5083296;28;20016;-78
2024/02/20 00:43:24;;;;;;;0.17;0.17;;;;;;;8.99;73.71;102944.44;5086894;28;20024;-79
2024/02/20 00:45:50;;;;;;;0.10;0.10;;;;;;;9.04;73.20;102937.50;5091933;28;20070;-79
2024/02/20 00:48:17;;;;;;;0.20;0.20;;;;;;;9.05;73.61;102936.66;5094270;28;20048;-78
2024/02/20 00:50:43;;;;;;;0.20;0.20;;;;;;;9.07;73.50;102940.22;5087640;28;20028;-78
2024/02/20 00:53:09;;;;;;;0.10;0.10;;;;;;;9.03;73.41;102935.75;5083528;28;20037;-78
2024/02/20 00:55:35;;;;;;;0.20;0.20;;;;;;;9.05;73.50;102944.56;5089992;28;20024;-78
2024/02/20 00:58:02;;;;;;;0.10;0.10;;;;;;;9.07;73.69;102942.88;5080269;28;20028;-78
2024/02/20 01:00:28;;;;;;;0.10;0.10;;;;;;;9.11;73.30;102942.91;5080569;28;20043;-78
2024/02/20 01:02:54;;;;;;;0.90;0.90;;;;;;;9.08;73.72;102938.47;5086573;28;20125;-78
2024/02/20 01:05:20;;;;;;;0.30;0.30;;;;;;;9.09;73.57;102939.38;5076121;28;20038;-79
2024/02/20 01:07:47;;;;;;;0.43;0.43;;;;;;;9.07;73.53;102937.59;5073692;28;20025;-78
2024/02/20 01:10:13;;;;;;;0.20;0.20;;;;;;;9.12;73.55;102931.47;5074920;28;20039;-78
2024/02/20 01:12:40;;;;;;;0.73;0.73;;;;;;;9.15;73.77;102939.50;5076678;28;20441;-78
2024/02/20 01:15:07;;;;;;;0.10;0.10;;;;;;;9.13;74.13;102931.50;5066035;28;20455;-78
2024/02/20 01:17:33;;;;;;;0.20;0.20;;;;;;;9.19;73.86;102936.03;5063423;28;20123;-78
2024/02/20 01:19:59;;;;;;;0.17;0.17;;;;;;;9.23;73.46;102938.78;5068379;28;20091;-78
2024/02/20 01:22:26;;;;;;;0.15;0.15;;;;;;;9.22;73.86;102933.44;5086760;28;20053;-78
2024/02/20 01:24:53;;;;;;;0.15;0.15;;;;;;;9.26;73.66;102937.03;5069513;28;20388;-78
2024/02/20 01:27:19;;;;;;;0.20;0.20;;;;;;;9.30;73.52;102930.97;5088811;28;20175;-78
2024/02/20 01:29:45;;;;;;;0.20;0.20;;;;;;;9.33;73.63;102939.84;5074439;28;20064;-78
2024/02/20 01:32:13;;;;;;;5.38;1.85;;;;;;;9.31;73.69;102936.28;5071221;28;20031;-78
2024/02/20 01:34:39;;;;;;;0.10;0.10;;;;;;;9.35;73.59;102934.59;5059880;28;20107;-78
2024/02/20 01:37:05;;;;;;;0.10;0.10;;;;;;;9.36;73.53;102929.31;5083371;28;20028;-78
2024/02/20 01:39:32;;;;;;;0.20;0.20;;;;;;;9.37;73.64;102941.69;5098130;28;20024;-78
2024/02/20 01:41:58;;;;;;;0.95;0.95;;;;;;;9.38;73.71;102935.53;5090706;28;20020;-78
2024/02/20 01:44:31;;;;;;;0.40;0.40;;;;;;;9.45;73.64;102943.59;5097023;28;20022;-78
2024/02/20 01:46:59;;;;;;;0.20;0.20;;;;;;;9.41;73.49;102941.72;5096385;28;20035;-78
2024/02/20 01:49:27;;;;;;;0.20;0.20;;;;;;;9.46;73.56;102940.97;5094190;28;20024;-78
2024/02/20 01:51:56;;;;;;;0.10;0.10;;;;;;;9.50;73.52;102947.19;5087884;28;20024;-78
2024/02/20 01:54:22;;;;;;;0.10;0.10;;;;;;;9.52;73.36;102940.16;5072166;28;20028;-78
2024/02/20 01:56:51;;;;;;;0.20;0.20;;;;;;;9.49;73.50;102940.13;5067908;28;20024;-78
2024/02/20 01:59:17;;;;;;;0.20;0.20;;;;;;;9.53;73.43;102944.59;5063181;28;20025;-78
2024/02/20 02:01:44;;;;;;;0.20;0.20;;;;;;;9.49;73.49;102940.13;5082839;28;20028;-78
2024/02/20 02:04:10;;;;;;;0.20;0.20;;;;;;;9.51;73.53;102938.41;5085870;28;20027;-78
2024/02/20 02:06:38;;;;;;;0.20;0.20;;;;;;;9.58;73.31;102945.56;5083070;28;20036;-78
2024/02/20 02:09:05;;;;;;;0.20;0.20;;;;;;;9.64;73.30;102940.38;5065426;28;20051;-78
2024/02/20 02:11:36;;;;;;;0.20;0.20;;;;;;;9.62;73.20;102934.19;5092566;28;20039;-79
2024/02/20 02:14:02;;;;;;;0.10;0.10;;;;;;;9.68;73.25;102928.09;5097633;28;20430;-78
2024/02/20 02:16:28;;;;;;;0.20;0.20;;;;;;;9.65;73.24;102930.69;5064018;28;20377;-79
2024/02/20 02:18:54;;;;;;;0.25;0.25;;;;;;;9.70;72.87;102924.59;5071618;28;20102;-79
2024/02/20 02:21:21;;;;;;;0.17;0.17;;;;;;;9.69;73.01;102928.16;5078503;28;20053;-79
2024/02/20 02:23:47;;;;;;;0.20;0.20;;;;;;;9.70;72.96;102932.56;5079583;28;20388;-79
2024/02/20 02:26:13;;;;;;;0.17;0.17;;;;;;;9.73;72.79;102933.47;5075929;28;20037;-78
2024/02/20 02:28:39;;;;;;;0.20;0.20;;;;;;;9.75;72.79;102931.75;5071890;28;20483;-79
2024/02/20 02:31:06;;;;;;;0.10;0.10;;;;;;;9.76;72.55;102928.22;5089228;28;20050;-79
2024/02/20 02:33:32;;;;;;;0.10;0.10;;;;;;;9.77;72.73;102936.22;5096070;28;20092;-79
2024/02/20 02:35:59;;;;;;;0.17;0.17;;;;;;;9.78;72.43;102931.78;5089662;28;20104;-79
2024/02/20 02:38:26;;;;;;;0.47;0.47;;;;;;;9.80;72.54;102932.72;5082387;28;20028;-78
2024/02/20 02:40:52;;;;;;;0.20;0.20;;;;;;;9.80;72.54;102940.66;5087185;28;20031;-79
2024/02/20 02:43:19;;;;;;;0.20;0.20;;;;;;;9.77;72.27;102924.72;5095831;28;20084;-79
2024/02/20 02:45:45;;;;;;;0.15;0.15;;;;;;;9.80;72.41;102932.72;5089792;28;20028;-78
2024/02/20 02:48:11;;;;;;;0.20;0.20;;;;;;;9.79;72.42;102929.16;5072473;28;20036;-78
2024/02/20 02:50:37;;;;;;;0.10;0.10;;;;;;;9.80;72.44;102920.38;5072235;28;20384;-78
2024/02/20 02:53:04;;;;;;;0.10;0.10;;;;;;;9.83;72.32;102927.47;5077973;28;20054;-79
2024/02/20 02:55:30;;;;;;;0.20;0.20;;;;;;;9.83;72.23;102930.09;5084878;28;20020;-78
2024/02/20 02:57:56;;;;;;;0.20;0.20;;;;;;;9.87;72.15;102931.97;5087063;28;20024;-78
2024/02/20 03:00:22;;;;;;;0.30;0.30;;;;;;;9.86;72.41;102923.13;5082330;28;20027;-79
2024/02/20 03:02:48;;;;;;;0.15;0.15;;;;;;;9.86;71.90;102932.81;5095521;28;20097;-78
2024/02/20 03:05:17;;;;;;;0.20;0.20;;;;;;;9.92;72.07;102929.38;5088557;28;20031;-78
2024/02/20 03:07:44;;;;;;;0.20;0.20;;;;;;;9.96;72.24;102934.75;5090182;28;20024;-78
2024/02/20 03:10:11;;;;;;;0.10;0.10;;;;;;;9.97;72.25;102925.94;5082570;28;20052;-78
2024/02/20 03:12:38;;;;;;;0.10;0.10;;;;;;;9.98;71.92;102927.72;5083793;28;20081;-77
2024/02/20 03:15:04;;;;;;;0.10;0.10;;;;;;;9.95;71.85;102925.03;5088699;28;20051;-77
2024/02/20 03:17:31;;;;;;;0.10;0.10;;;;;;;9.98;71.52;102918.88;5090268;28;20081;-77
2024/02/20 03:19:58;;;;;;;0.10;0.10;;;;;;;9.96;71.74;102923.28;5092622;28;20514;-78
2024/02/20 03:22:25;;;;;;;1.05;1.05;;;;;;;9.96;71.58;102924.16;5082151;28;20550;-78
2024/02/20 03:24:52;;;;;;;0.20;0.20;;;;;;;9.96;71.77;102918.88;5082633;28;20026;-79
2024/02/20 03:27:18;;;;;;;0.20;0.20;;;;;;;9.96;71.98;102916.22;5087527;28;20039;-78
2024/02/20 03:29:45;;;;;;;0.10;0.10;;;;;;;9.95;72.13;102914.44;5091838;28;20043;-78
2024/02/20 03:32:11;;;;;;;0.20;0.20;;;;;;;9.94;71.87;102917.94;5083613;28;20024;-78
2024/02/20 03:34:38;;;;;;;1.48;1.40;;;;;;;9.93;72.05;102912.63;5078157;28;20020;-78
2024/02/20 03:37:04;;;;;;;0.20;0.20;;;;;;;9.90;71.75;102905.53;5084862;28;20070;-78
2024/02/20 03:39:30;;;;;;;3.95;3.53;;;;;;;9.91;71.88;102907.31;5094200;28;20032;-78
2024/02/20 03:41:56;;;;;;;0.20;0.20;;;;;;;9.89;71.97;102903.72;5092918;28;20028;-78
2024/02/20 03:44:23;;;;;;;0.10;0.10;;;;;;;9.92;72.11;102902.88;5091050;28;20024;-78
2024/02/20 03:46:49;;;;;;;0.10;0.10;;;;;;;9.88;71.85;102901.94;5090868;28;20024;-78
2024/02/20 03:49:15;;;;;;;0.10;0.10;;;;;;;9.87;71.92;102905.50;5092057;28;20043;-78
2024/02/20 03:51:44;;;;;;;0.20;0.20;;;;;;;9.84;71.91;102900.13;5089087;28;20024;-78
2024/02/20 03:54:10;;;;;;;0.10;0.10;;;;;;;9.81;71.96;102889.50;5084407;28;20025;-78
2024/02/20 03:56:36;;;;;;;0.20;0.20;;;;;;;9.78;71.74;102894.72;5093995;28;20075;-78
2024/02/20 03:59:02;;;;;;;0.75;0.75;;;;;;;9.79;71.92;102901.81;5090006;28;20035;-78
2024/02/20 04:01:28;;;;;;;0.30;0.30;;;;;;;9.80;71.86;102898.31;5103137;28;20048;-78
2024/02/20 04:03:55;;;;;;;0.20;0.20;;;;;;;9.80;71.90;102900.94;5104103;28;20028;-78
2024/02/20 04:06:21;;;;;;;0.10;0.10;;;;;;;9.79;71.75;102896.53;5089314;28;20052;-78
2024/02/20 04:08:47;;;;;;;0.20;0.20;;;;;;;9.82;72.04;102901.84;5068562;28;20408;-78
2024/02/20 04:11:13;;;;;;;0.10;0.10;;;;;;;9.83;71.99;102901.00;5069565;28;20067;-78
2024/02/20 04:13:40;;;;;;;0.10;0.10;;;;;;;9.82;72.00;102891.25;5070920;28;20024;-78
2024/02/20 04:16:06;;;;;;;0.30;0.30;;;;;;;9.81;72.03;102884.22;5075644;28;20034;-78
2024/02/20 04:18:32;;;;;;;0.63;0.63;;;;;;;9.84;71.86;102892.19;5084236;28;20029;-78
2024/02/20 04:20:58;;;;;;;0.10;0.10;;;;;;;9.84;72.21;102884.25;5076062;28;20024;-78
2024/02/20 04:23:26;;;;;;;0.30;0.30;;;;;;;9.81;72.02;102889.50;5057478;28;20020;-78
2024/02/20 04:25:52;;;;;;;0.20;0.20;;;;;;;9.84;72.21;102885.16;5072026;28;20028;-78
2024/02/20 04:28:19;;;;;;;0.28;0.28;;;;;;;9.85;72.13;102886.91;5080818;28;20024;-78
2024/02/20 04:30:45;;;;;;;0.10;0.10;;;;;;;9.83;72.14;102882.44;5104233;28;20024;-78
2024/02/20 04:33:11;;;;;;;0.10;0.10;;;;;;;9.84;72.18;102889.53;5095967;28;20130;-78
2024/02/20 04:35:38;;;;;;;0.20;0.20;;;;;;;9.85;72.21;102896.63;5102864;28;20024;-78
2024/02/20 04:38:05;;;;;;;0.10;0.10;;;;;;;9.83;72.15;102888.66;5094782;28;20052;-78
2024/02/20 04:40:32;;;;;;;0.10;0.10;;;;;;;9.85;72.35;102897.50;5088823;28;20024;-77
2024/02/20 04:42:58;;;;;;;0.20;0.20;;;;;;;9.85;72.31;102891.31;5094476;28;20044;-78
2024/02/20 04:45:25;;;;;;;0.10;0.10;;;;;;;9.79;72.41;102891.22;5087134;28;20024;-77
2024/02/20 04:47:53;;;;;;;0.10;0.10;;;;;;;9.85;72.57;102883.38;5063705;28;20029;-77
2024/02/20 04:50:19;;;;;;;0.10;0.10;;;;;;;9.87;72.35;102894.91;5072467;28;20028;-77
2024/02/20 04:52:46;;;;;;;0.20;0.20;;;;;;;9.84;72.43;102892.19;5061006;28;20028;-77
2024/02/20 04:55:12;;;;;;;0.85;0.85;;;;;;;9.83;72.40;102898.34;5074388;28;20024;-77
2024/02/20 04:57:38;;;;;;;0.15;0.15;;;;;;;9.82;72.38;102891.25;5087564;28;20132;-78
2024/02/20 05:00:10;;;;;;;0.20;0.20;;;;;;;9.81;72.46;102895.69;5073194;28;20024;-79
2024/02/20 05:02:37;;;;;;;0.20;0.20;;;;;;;9.84;72.31;102900.13;5076221;28;20121;-78
2024/02/20 05:05:04;;;;;;;1.83;1.75;;;;;;;9.81;72.24;102900.97;5067546;28;20031;-79
2024/02/20 05:07:30;;;;;;;0.20;0.20;;;;;;;9.76;72.48;102902.66;5071971;28;20024;-79
2024/02/20 05:09:57;;;;;;;0.20;0.20;;;;;;;9.77;72.56;102899.16;5059738;28;20092;-78
2024/02/20 05:12:23;;;;;;;0.10;0.10;;;;;;;9.80;72.43;102893.00;5068109;28;20067;-79
2024/02/20 05:14:49;;;;;;;6.13;1.88;;;;;;;9.75;72.66;102900.00;5059479;28;20512;-78
2024/02/20 05:17:15;;;;;;;0.40;0.40;;;;;;;9.81;72.37;102900.09;5058613;28;20076;-78
2024/02/20 05:19:42;;;;;;;0.20;0.20;;;;;;;9.84;72.52;102886.88;5064190;28;20137;-78
2024/02/20 05:22:08;;;;;;;0.10;0.10;;;;;;;9.82;72.32;102891.25;5067179;28;20498;-78
2024/02/20 05:24:34;;;;;;;0.10;0.10;;;;;;;9.83;72.32;102898.34;5056602;28;20499;-79
2024/02/20 05:27:04;;;;;;;1.98;0.80;;;;;;;9.84;72.36;102894.84;5056366;28;20028;-78
2024/02/20 05:29:30;;;;;;;0.10;0.10;;;;;;;9.83;72.21;102891.31;5055916;28;20028;-78
2024/02/20 05:31:57;;;;;;;0.10;0.10;;;;;;;9.80;72.18;102878.00;5053576;28;20488;-78
2024/02/20 05:34:23;;;;;;;0.10;0.10;;;;;;;9.79;72.38;102876.22;5055992;28;20033;-78
2024/02/20 05:36:50;;;;;;;1.75;1.00;;;;;;;9.76;72.16;102873.53;5059945;28;20586;-78
2024/02/20 05:39:16;;;;;;;0.10;0.10;;;;;;;9.71;72.06;102873.44;5062878;28;20036;-78
2024/02/20 05:41:42;;;;;;;0.20;0.20;;;;;;;9.68;72.10;102870.78;5064063;28;20515;-78
2024/02/20 05:44:08;;;;;;;0.10;0.10;;;;;;;9.65;71.87;102870.69;5066231;28;20020;-77
2024/02/20 05:46:36;;;;;;;0.10;0.10;;;;;;;9.60;71.88;102869.75;5060768;28;20032;-77
2024/02/20 05:49:04;;;;;;;0.30;0.30;;;;;;;9.51;71.64;102870.47;5068562;28;20309;-78
2024/02/20 05:51:31;;;;;;;11.18;3.50;;;;;;;9.50;71.92;102878.41;5055683;28;20039;-78
2024/02/20 05:53:57;;;;;;;0.10;0.10;;;;;;;9.44;72.09;102891.53;5052947;28;20017;-78
2024/02/20 05:56:23;;;;;;;0.10;0.10;;;;;;;9.43;72.27;102887.09;5052243;28;20024;-79
2024/02/20 05:58:50;;;;;;;0.10;0.10;;;;;;;9.43;72.12;102892.38;5053996;28;20021;-78
2024/02/20 06:01:16;;;;;;;0.10;0.10;;;;;;;9.38;72.15;102885.25;5063031;28;20029;-78
2024/02/20 06:03:43;;;;;;;0.15;0.15;;;;;;;9.36;72.26;102888.75;5053432;28;20033;-78
2024/02/20 06:06:11;;;;;;;0.10;0.10;;;;;;;9.31;72.25;102882.44;5054896;28;20032;-76
2024/02/20 06:08:42;;;;;;;0.10;0.10;;;;;;;9.30;72.22;102881.56;5057865;28;20032;-78
2024/02/20 06:11:17;;;;;;;0.10;0.10;;;;;;;9.34;72.19;102887.81;5055458;28;20021;-78
2024/02/20 06:13:45;;;;;;;0.10;0.10;;;;;;;9.26;72.16;102898.25;5054770;28;20041;-77
2024/02/20 06:16:11;;;;;;;0.10;0.10;;;;;;;9.22;72.18;102893.75;5059743;28;20079;-78
2024/02/20 06:18:39;;;;;;;0.40;0.40;;;;;;;9.24;72.37;102897.34;5058397;28;20070;-78
2024/02/20 06:21:06;;;;;;;0.20;0.20;;;;;;;9.19;72.12;102897.25;5073169;28;20051;-78
2024/02/20 06:23:35;;;;;;;0.10;0.10;;;;;;;9.16;72.59;102898.94;5066086;28;20021;-77
2024/02/20 06:26:02;;;;;;;0.20;0.20;;;;;;;9.19;72.39;102885.78;5067843;28;20043;-79
2024/02/20 06:28:28;;;;;;;0.10;0.10;;;;;;;9.12;72.68;102883.88;5059770;28;20396;-77
2024/02/20 06:30:55;;;;;;;0.20;0.20;;;;;;;9.10;72.43;102883.84;5057897;28;20032;-78
2024/02/20 06:33:21;;;;;;;0.35;0.35;;;;;;;9.08;72.28;102890.84;5052949;28;20033;-77
2024/02/20 06:35:47;;;;;;;0.20;0.20;;;;;;;9.06;72.22;102890.84;5076733;28;20470;-78
2024/02/20 06:38:14;;;;;;;0.10;0.10;;;;;;;9.03;72.37;102882.88;5077768;28;20036;-77
2024/02/20 06:40:40;;;;;;;0.10;0.10;;;;;;;9.04;72.28;102881.97;5079775;28;20044;-76
2024/02/20 06:43:06;;;;;;;0.20;0.20;;;;;;;9.03;72.44;102877.56;5073921;28;20068;-77
2024/02/20 06:45:32;;;;;;;0.10;0.10;;;;;;;9.01;72.68;102876.63;5075005;28;20024;-78
2024/02/20 06:47:58;;;;;;;0.20;0.20;;;;;;;8.99;72.78;102875.72;5071560;28;20472;-78
2024/02/20 06:50:24;;;;;;;0.20;0.20;;;;;;;8.99;72.80;102878.34;5067837;28;20093;-78
2024/02/20 06:52:51;;;;;;;0.10;0.10;;;;;;;9.00;72.96;102874.84;5067768;28;20029;-78
2024/02/20 06:55:17;;;;;;;0.10;0.10;;;;;;;8.98;72.78;102879.22;5076722;28;20028;-77
2024/02/20 06:57:44;;;;;;;0.10;0.10;;;;;;;9.02;72.78;102890.75;5065161;28;20037;-77
2024/02/20 07:00:12;;;;;;;0.20;0.20;;;;;;;9.00;72.96;102885.44;5067038;28;20074;-77
2024/02/20 07:02:42;;;;;;;1.20;1.13;;;;;;;9.03;73.29;102885.50;5069609;28;20079;-79
2024/02/20 07:05:08;;;;;;;0.40;0.40;;;;;;;8.98;73.44;102881.84;5070593;28;20038;-78
2024/02/20 07:07:35;;;;;;;0.13;0.13;;;;;;;9.05;73.32;102880.25;5068530;28;20066;-78
2024/02/20 07:10:03;;;;;;;0.20;0.20;;;;;;;8.96;73.75;102874.75;5068227;28;20016;-77
2024/02/20 07:12:29;;;;;;;38.38;2.50;;;;;;;9.05;73.48;102881.13;5071545;28;20094;-77
2024/02/20 07:14:55;;;;;;;0.20;0.20;;;;;;;9.09;73.94;102873.25;5052619;28;20550;-77
2024/02/20 07:17:24;;;;;;;0.10;0.10;;;;;;;9.02;73.96;102872.22;5054174;28;20399;-77
2024/02/20 07:19:50;;;;;;;0.13;0.13;;;;;;;9.03;74.27;102872.28;5062964;28;20067;-77
2024/02/20 07:22:16;;;;;;;0.10;0.10;;;;;;;9.02;74.06;102870.50;5056086;28;20395;-77
2024/02/20 07:24:42;;;;;;;0.20;0.20;;;;;;;9.02;74.18;102867.84;5054724;28;20433;-77
2024/02/20 07:27:08;;;;;;;0.20;0.20;;;;;;;9.09;73.97;102874.13;5055862;28;20511;-77
2024/02/20 07:29:34;;;;;;;0.10;0.10;;;;;;;9.09;74.24;102865.31;5056465;28;20029;-77
2024/02/20 07:32:01;;;;;;;0.20;0.20;;;;;;;9.10;74.15;102867.06;5063052;28;20032;-77
2024/02/20 07:34:28;;;;;;;0.20;0.20;;;;;;;9.12;74.39;102857.44;5062140;28;20025;-77
2024/02/20 07:36:54;;;;;;;0.57;0.57;;;;;;;9.15;74.41;102862.78;5068079;28;20029;-77
2024/02/20 07:39:20;;;;;;;0.20;0.20;;;;;;;9.17;74.25;102863.69;5066698;28;20577;-77
2024/02/20 07:41:46;;;;;;;0.20;0.20;;;;;;;9.26;74.28;102860.31;5060211;28;20044;-77
2024/02/20 07:44:12;;;;;;;2.13;2.05;;;;;;;9.30;73.93;102860.41;5074344;28;20028;-78
2024/02/20 07:46:38;;;;;;;0.20;0.20;;;;;;;9.31;74.43;102866.59;5073566;28;20025;-78
2024/02/20 07:49:06;;;;;;;0.10;0.10;;;;;;;9.39;74.10;102865.88;5074608;28;20021;-78
2024/02/20 07:51:34;;;;;;;2.53;0.90;;;;;;;9.39;74.50;102871.19;5072647;28;20036;-78
2024/02/20 07:54:00;;;;;;;0.57;0.57;;;;;;;9.49;74.47;102861.63;5072793;28;20017;-78
2024/02/20 07:56:29;;;;;;;0.40;0.40;;;;;;;9.59;74.21;102856.50;5058933;28;20025;-78
2024/02/20 07:58:55;;;;;;;0.10;0.10;;;;;;;9.63;74.31;102864.53;5067087;28;20037;-77
2024/02/20 08:01:22;;;;;;;0.10;0.10;;;;;;;9.66;74.33;102864.56;5067760;28;20040;-77
2024/02/20 08:03:49;;;;;;;0.65;0.65;;;;;;;9.73;74.29;102873.47;5067498;28;20031;-77
2024/02/20 08:06:15;;;;;;;0.38;0.38;;;;;;;9.81;74.07;102876.25;5064378;28;20087;-77
2024/02/20 08:08:42;;;;;;;3.20;1.10;;;;;;;9.85;73.85;102880.72;5065140;28;20029;-77
2024/02/20 08:11:08;;;;;;;0.10;0.10;;;;;;;9.91;73.84;102880.81;5071817;28;20106;-78
2024/02/20 08:13:34;;;;;;;4.07;1.00;;;;;;;9.93;74.06;102879.09;5070886;28;20053;-78
2024/02/20 08:16:01;;;;;;;0.20;0.20;;;;;;;9.98;73.94;102887.09;5068699;28;20096;-77
2024/02/20 08:18:28;;;;;;;0.30;0.30;;;;;;;9.98;73.92;102877.41;5071249;28;20029;-77
2024/02/20 08:20:54;;;;;;;0.75;0.45;;;;;;;10.06;73.74;102876.66;5070268;28;20025;-77
2024/02/20 08:23:20;;;;;;;0.20;0.20;;;;;;;10.04;73.75;102871.31;5069634;28;20035;-77
2024/02/20 08:25:46;;;;;;;0.10;0.10;;;;;;;10.04;73.80;102872.22;5068295;28;20075;-77
2024/02/20 08:28:12;;;;;;;0.20;0.20;;;;;;;10.05;73.66;102873.09;5079107;28;20041;-77
2024/02/20 08:30:39;;;;;;;0.40;0.30;;;;;;;10.03;73.72;102866.88;5074403;28;20028;-77
2024/02/20 08:33:06;;;;;;;0.20;0.20;;;;;;;10.07;73.27;102865.16;5075109;28;20054;-78
2024/02/20 08:35:33;;;;;;;0.20;0.20;;;;;;;10.04;73.27;102871.31;5078432;28;20021;-77
2024/02/20 08:37:59;;;;;;;0.10;0.10;;;;;;;10.14;73.04;102877.63;5071863;28;20071;-78
2024/02/20 08:40:25;;;;;;;0.13;0.13;;;;;;;10.20;73.05;102883.00;5071974;28;20036;-78
2024/02/20 08:42:51;;;;;;;0.22;0.22;;;;;;;10.24;73.05;102876.00;5071211;28;20035;-77
2024/02/20 08:45:19;;;;;;;0.10;0.10;;;;;;;10.27;72.91;102870.72;5071697;28;20122;-77
2024/02/20 08:47:45;;;;;;;0.20;0.20;;;;;;;10.32;73.02;102872.59;5074659;28;20021;-77
2024/02/20 08:50:16;;;;;;;0.15;0.15;;;;;;;10.39;72.89;102878.88;5076909;28;20064;-78
2024/02/20 08:52:43;;;;;;;0.30;0.30;;;;;;;10.40;72.46;102883.31;5069437;28;20051;-77
2024/02/20 08:55:09;;;;;;;0.13;0.13;;;;;;;10.40;72.59;102875.38;5064858;28;20564;-77
2024/02/20 08:57:35;;;;;;;4.82;0.65;;;;;;;10.44;72.76;102871.00;5066870;28;20055;-76
2024/02/20 09:00:01;;;;;;;0.20;0.20;;;;;;;10.49;71.95;102875.50;5062327;28;20029;-77
2024/02/20 09:02:27;;;;;;;0.20;0.20;;;;;;;10.60;72.24;102883.56;5062949;28;20044;-78
2024/02/20 09:04:53;;;;;;;0.10;0.10;;;;;;;10.57;71.94;102866.78;5065696;28;20048;-77
2024/02/20 09:07:19;;;;;;;0.10;0.10;;;;;;;10.58;71.64;102872.09;5056053;28;20029;-77
2024/02/20 09:09:45;;;;;;;0.10;0.10;;;;;;;10.60;71.99;102875.63;5058767;28;20025;-77
2024/02/20 09:12:12;;;;;;;0.13;0.13;;;;;;;10.65;71.60;102870.38;5066696;28;20036;-78
2024/02/20 09:14:38;;;;;;;0.10;0.10;;;;;;;10.72;71.73;102859.00;5059108;28;20025;-78
2024/02/20 09:17:04;;;;;;;0.10;0.10;;;;;;;10.81;72.05;102860.88;5069911;28;20118;-78
2024/02/20 09:19:30;;;;;;;0.10;0.10;;;;;;;10.79;71.62;102862.59;5070884;28;20028;-77
2024/02/20 09:21:56;;;;;;;0.30;0.30;;;;;;;10.88;71.59;102857.41;5067302;28;20029;-78
2024/02/20 09:24:22;;;;;;;0.17;0.17;;;;;;;10.91;71.28;102861.84;5068201;28;20032;-79
2024/02/20 09:26:49;;;;;;;1.30;1.30;;;;;;;10.98;71.16;102856.63;5067686;28;20025;-78
2024/02/20 09:29:15;;;;;;;0.60;0.60;;;;;;;11.00;71.63;102852.25;5074393;28;20500;-78
2024/02/20 09:31:41;;;;;;;1.10;1.10;;;;;;;11.07;71.22;102842.56;5073151;28;20025;-78
2024/02/20 09:34:07;;;;;;;4.78;1.17;;;;;;;11.14;71.57;102849.72;5074148;28;20109;-78
2024/02/20 09:36:33;;;;;;;0.20;0.20;;;;;;;11.11;71.52;102848.81;5074517;28;20067;-78
2024/02/20 09:39:03;;;;;;;0.10;0.10;;;;;;;11.19;71.14;102844.47;5070352;28;20500;-78
2024/02/20 09:41:34;;;;;;;0.10;0.10;;;;;;;11.16;70.92;102844.44;5076265;28;20024;-77
2024/02/20 09:44:00;;;;;;;1.40;1.35;;;;;;;11.28;71.05;102846.31;5082624;28;20077;-78
2024/02/20 09:46:29;;;;;;;0.10;0.10;;;;;;;11.38;71.22;102842.00;5064590;28;20029;-78
2024/02/20 09:48:55;;;;;;;0.38;0.38;;;;;;;11.33;71.30;102834.84;5062940;28;20044;-77
2024/02/20 09:51:26;;;;;;;0.20;0.20;;;;;;;11.32;71.21;102838.38;5065944;28;20027;-78
2024/02/20 09:53:54;;;;;;;0.10;0.10;;;;;;;11.42;70.81;102833.16;5064667;28;20021;-77
2024/02/20 09:56:21;;;;;;;0.10;0.10;;;;;;;11.35;70.13;102837.50;5066245;28;20416;-77
2024/02/20 09:58:47;;;;;;;0.15;0.15;;;;;;;11.35;70.45;102826.03;5072099;28;20025;-78
2024/02/20 10:01:15;;;;;;;0.10;0.10;;;;;;;11.52;69.56;102827.03;5069551;28;20103;-78
2024/02/20 10:03:44;;;;;;;0.10;0.10;;;;;;;11.56;70.24;102826.19;5077939;28;20049;-78
2024/02/20 10:06:14;;;;;;;0.20;0.20;;;;;;;11.68;69.88;102838.69;5072846;28;20564;-78
2024/02/20 10:08:40;;;;;;;0.13;0.13;;;;;;;11.61;69.99;102831.53;5084389;28;20029;-79
2024/02/20 10:11:06;;;;;;;0.32;0.32;;;;;;;11.64;70.04;102818.31;5074320;28;20024;-79
2024/02/20 10:13:43;;;;;;;4.47;1.77;;;;;;;11.76;69.69;102806.84;5067067;28;20040;-79
2024/02/20 10:16:13;;;;;;;3.38;1.95;;;;;;;11.75;69.81;102811.28;5062366;28;20103;-79
2024/02/20 10:18:39;;;;;;;0.20;0.20;;;;;;;11.76;69.68;102817.47;5070323;28;20021;-78
2024/02/20 10:21:07;;;;;;;1.05;1.05;;;;;;;11.76;68.83;102820.13;5071576;28;20100;-79
2024/02/20 10:23:33;;;;;;;0.10;0.10;;;;;;;11.78;68.74;102816.63;5068003;28;20012;-79
2024/02/20 10:26:00;;;;;;;0.10;0.10;;;;;;;11.89;69.30;102811.38;5070366;28;20029;-78
2024/02/20 10:28:26;;;;;;;0.10;0.10;;;;;;;11.89;69.33;102808.72;5069138;28;20107;-78
2024/02/20 10:30:54;;;;;;;0.10;0.10;;;;;;;12.00;68.60;102807.91;5073502;28;20060;-78
2024/02/20 10:33:20;;;;;;;0.20;0.20;;;;;;;12.04;68.37;102801.78;5078105;28;20068;-77
2024/02/20 10:35:47;;;;;;;0.50;0.50;;;;;;;12.13;68.25;102797.34;5069914;28;20056;-78
2024/02/20 10:38:19;;;;;;;0.10;0.10;;;;;;;12.33;68.44;102798.34;5072626;28;20025;-78
2024/02/20 10:40:45;;;;;;;0.20;0.20;;;;;;;12.36;68.16;102801.00;5073431;28;20401;-78
2024/02/20 10:43:12;;;;;;;0.43;0.43;;;;;;;12.28;66.27;102807.16;5077695;28;20104;-78
2024/02/20 10:45:41;;;;;;;0.10;0.10;;;;;;;12.50;66.82;102804.63;5071411;28;20190;-78
2024/02/20 10:48:10;;;;;;;0.45;0.45;;;;;;;12.45;65.24;102799.28;5076366;28;20054;-78
2024/02/20 10:50:37;;;;;;;1.85;1.75;;;;;;;12.52;65.68;102793.97;5071867;28;20470;-78
2024/02/20 10:53:04;;;;;;;0.43;0.40;;;;;;;12.65;66.03;102790.47;5080898;28;20020;-78
2024/02/20 10:55:31;;;;;;;0.10;0.10;;;;;;;12.65;65.70;102785.16;5078358;28;20481;-78
2024/02/20 10:58:00;;;;;;;1.17;1.10;;;;;;;12.77;64.96;102795.84;5089422;28;20028;-78
2024/02/20 11:00:27;;;;;;;0.10;0.10;;;;;;;12.73;64.70;102787.84;5091290;28;20036;-78
2024/02/20 11:02:55;;;;;;;0.15;0.15;;;;;;;12.83;63.74;102789.63;5089831;28;20033;-77
2024/02/20 11:05:23;;;;;;;1.85;1.75;;;;;;;12.89;63.58;102781.66;5074839;28;20046;-78
2024/02/20 11:07:49;;;;;;;0.10;0.10;;;;;;;12.97;63.59;102775.44;5091769;28;20024;-78
2024/02/20 11:12:55;;;;;;;0.10;0.10;;;;;;;13.04;61.93;102777.25;5119246;27;20378;-78
2024/02/20 11:15:27;;;;;;;0.45;0.45;;;;;;;13.18;62.11;102770.13;5106574;28;20028;-79
2024/02/20 11:17:53;;;;;;;0.10;0.10;;;;;;;13.06;61.39;102780.75;5107422;28;20039;-79
2024/02/20 11:20:21;;;;;;;0.10;0.10;;;;;;;13.11;61.45;102773.69;5114439;28;20031;-79
2024/02/20 11:22:49;;;;;;;1.13;1.13;;;;;;;13.21;61.47;102763.94;5120091;28;20028;-79
2024/02/20 11:27:54;;;;;;;1.67;1.58;;;;;;;13.38;60.72;102769.28;5099795;27;20125;-77
2024/02/20 11:30:22;;;;;;;0.10;0.10;;;;;;;13.41;60.68;102764.84;5094598;28;20039;-77
2024/02/20 11:32:50;;;;;;;0.10;0.10;;;;;;;13.43;60.58;102764.81;5095262;28;20032;-78
2024/02/20 11:37:55;;;;;;;0.00;0.00;;;;;;;13.74;60.88;102751.47;5099162;27;1445417;-77